Time;durP1;ratioP1;P1;durP2;ratioP2;P2;SDS_P1;SDS_P2;PMS_P1;PMS_P2;Temp;Humidity;BMP_temperature;BMP_pressure;BME280_temperature;BME280_humidity;BME280_pressure;Samples;Min_cycle;Max_cycle;Signal;HPM_P1;HPM_P2
2022/04/11 00:02:36;;;;;;;3.97;3.53;;;;;;;5.78;48.66;100145.03;7735696;32;40290;-75
2022/04/11 00:06:52;;;;;;;4.43;3.40;;;;;;;5.71;47.63;100133.47;7735732;32;37911;-75
2022/04/11 00:11:08;;;;;;;5.97;3.78;;;;;;;5.52;49.05;100138.97;7735882;32;37105;-75
2022/04/11 00:15:24;;;;;;;5.65;3.53;;;;;;;5.50;48.14;100156.47;7735700;32;39319;-76
2022/04/11 00:19:40;;;;;;;7.97;4.05;;;;;;;5.49;48.36;100147.53;7735294;32;40053;-75
2022/04/11 00:23:56;;;;;;;4.53;3.53;;;;;;;5.71;48.08;100155.97;7729839;32;37882;-75
2022/04/11 00:28:13;;;;;;;5.03;3.22;;;;;;;5.78;47.74;100155.87;7712668;32;37105;-74
2022/04/11 00:32:29;;;;;;;4.68;3.40;;;;;;;5.90;47.69;100158.56;7712814;32;39086;-75
2022/04/11 00:36:45;;;;;;;7.05;4.05;;;;;;;5.68;48.49;100167.22;7712548;32;39689;-75
2022/04/11 00:41:01;;;;;;;6.12;3.72;;;;;;;5.52;47.80;100165.16;7712416;32;37726;-75
2022/04/11 00:45:17;;;;;;;4.25;3.28;;;;;;;5.62;48.20;100150.06;7712529;32;36942;-75
2022/04/11 00:49:33;;;;;;;5.95;3.80;;;;;;;5.86;48.16;100169.03;7712425;32;39057;-75
2022/04/11 00:53:50;;;;;;;5.37;3.53;;;;;;;5.66;47.80;100161.22;7713108;32;40499;-75
2022/04/11 00:58:06;;;;;;;8.43;3.83;;;;;;;5.55;48.13;100162.81;7711086;32;38035;-75
2022/04/11 01:02:22;;;;;;;7.28;3.83;;;;;;;5.78;47.92;100166.69;7712728;32;37786;-75
2022/04/11 01:06:38;;;;;;;6.20;3.95;;;;;;;5.75;47.98;100172.56;7712140;32;40138;-75
2022/04/11 01:10:55;;;;;;;7.43;3.60;;;;;;;5.59;48.23;100169.44;7715254;32;39956;-75
2022/04/11 01:15:11;;;;;;;6.78;3.37;;;;;;;5.75;48.28;100175.25;7738766;32;37871;-76
2022/04/11 01:19:27;;;;;;;7.50;4.00;;;;;;;5.50;49.24;100178.91;7738883;32;37384;-75
2022/04/11 01:23:43;;;;;;;7.75;3.90;;;;;;;5.08;50.99;100192.34;7733606;32;40178;-74
2022/04/11 01:28:00;;;;;;;4.85;3.53;;;;;;;5.19;51.30;100182.63;7712015;32;40062;-75
2022/04/11 01:32:17;;;;;;;4.30;3.35;;;;;;;5.28;50.61;100189.41;7710669;32;37930;-75
2022/04/11 01:36:33;;;;;;;4.22;3.65;;;;;;;5.21;50.52;100188.66;7711406;32;37705;-75
2022/04/11 01:40:53;;;;;;;6.75;3.87;;;;;;;5.32;50.46;100190.59;7711919;32;39783;-76
2022/04/11 01:45:11;;;;;;;9.75;4.65;;;;;;;5.01;50.91;100200.50;7710420;32;40214;-75
2022/04/11 01:49:27;;;;;;;5.80;4.40;;;;;;;4.99;51.21;100201.81;7711331;32;37708;-74
2022/04/11 01:53:43;;;;;;;8.88;4.97;;;;;;;5.15;50.52;100201.19;7717206;32;37020;-74
2022/04/11 01:58:00;;;;;;;6.80;4.05;;;;;;;4.95;51.07;100211.41;7738463;32;40216;-75
2022/04/11 02:02:16;;;;;;;4.95;3.92;;;;;;;5.10;50.88;100208.31;7736785;32;40947;-74
2022/04/11 02:06:32;;;;;;;7.18;4.43;;;;;;;5.04;51.09;100208.19;7734741;32;38717;-76
2022/04/11 02:10:48;;;;;;;6.07;4.50;;;;;;;4.98;51.66;100217.16;7734761;32;37249;-76
2022/04/11 02:15:05;;;;;;;8.23;4.60;;;;;;;4.81;52.54;100208.84;7734585;32;39427;-76
2022/04/11 02:19:20;;;;;;;7.82;4.82;;;;;;;4.74;52.71;100210.78;7736218;32;40052;-75
2022/04/11 02:23:37;;;;;;;6.40;4.55;;;;;;;4.71;52.50;100208.53;7721718;32;37924;-74
2022/04/11 02:28:00;;;;;;;7.12;4.43;;;;;;;4.55;53.33;100219.91;7738079;32;37864;-75
2022/04/11 02:32:16;;;;;;;8.15;4.50;;;;;;;4.51;53.39;100217.63;7738157;32;39357;-76
2022/04/11 02:36:32;;;;;;;5.60;4.55;;;;;;;4.74;52.77;100215.34;7737898;32;40784;-75
2022/04/11 02:40:48;;;;;;;5.68;4.20;;;;;;;4.12;55.25;100218.78;7732971;32;37763;-75
2022/04/11 02:45:04;;;;;;;8.75;4.70;;;;;;;4.27;54.64;100226.56;7711211;32;37014;-75
2022/04/11 02:49:20;;;;;;;7.05;4.80;;;;;;;4.47;54.38;100224.53;7720287;32;39392;-75
2022/04/11 02:53:36;;;;;;;6.70;4.78;;;;;;;4.64;53.29;100227.50;7732027;32;40876;-73
2022/04/11 02:57:52;;;;;;;6.97;4.90;;;;;;;5.00;52.42;100235.88;7710711;32;38874;-75
2022/04/11 03:02:08;;;;;;;10.82;5.20;;;;;;;4.50;54.09;100232.19;7710616;32;37105;-75
2022/04/11 03:06:25;;;;;;;6.32;4.47;;;;;;;4.38;54.59;100231.28;7710742;32;39141;-74
2022/04/11 03:10:41;;;;;;;6.18;4.80;;;;;;;4.46;54.37;100236.38;7710490;32;40869;-75
2022/04/11 03:14:56;;;;;;;8.02;5.15;;;;;;;4.48;54.34;100253.19;7710249;32;38820;-75
2022/04/11 03:19:13;;;;;;;5.97;4.68;;;;;;;4.50;54.35;100250.25;7710489;32;37168;-75
2022/04/11 03:23:29;;;;;;;7.90;4.97;;;;;;;4.64;53.67;100249.09;7715151;32;39354;-75
2022/04/11 03:27:45;;;;;;;9.63;5.47;;;;;;;4.03;55.44;100266.78;7737029;32;40807;-75
2022/04/11 03:32:01;;;;;;;9.90;6.07;;;;;;;3.96;55.57;100274.09;7736722;32;38504;-75
2022/04/11 03:36:18;;;;;;;10.35;6.25;;;;;;;4.20;54.74;100264.41;7736810;32;37299;-75
2022/04/11 03:40:34;;;;;;;8.40;5.53;;;;;;;4.16;55.29;100273.12;7735292;32;39356;-75
2022/04/11 03:44:50;;;;;;;8.70;5.07;;;;;;;3.97;55.82;100273.06;7736571;32;40711;-75
2022/04/11 03:49:06;;;;;;;8.02;5.57;;;;;;;3.84;56.15;100289.31;7736334;32;37856;-76
2022/04/11 03:53:22;;;;;;;9.10;5.25;;;;;;;4.17;55.25;100288.28;7731452;32;37142;-74
2022/04/11 03:57:38;;;;;;;6.78;5.32;;;;;;;4.35;54.46;100299.19;7709877;32;38595;-74
2022/04/11 04:01:55;;;;;;;8.18;5.28;;;;;;;4.40;54.13;100293.97;7712269;32;39899;-75
2022/04/11 04:06:11;;;;;;;9.48;5.80;;;;;;;4.31;54.19;100297.94;7712917;32;37560;-75
2022/04/11 04:10:27;;;;;;;8.73;5.25;;;;;;;3.92;55.54;100300.69;7712779;32;37402;-75
2022/04/11 04:14:43;;;;;;;7.35;5.30;;;;;;;3.82;56.15;100299.50;7712645;32;39419;-76
2022/04/11 04:18:59;;;;;;;10.48;5.78;;;;;;;4.06;55.30;100301.44;7712736;32;40004;-77
2022/04/11 04:23:17;;;;;;;8.95;5.40;;;;;;;3.90;55.57;100300.06;7716973;32;38120;-74
2022/04/11 04:27:34;;;;;;;8.15;5.55;;;;;;;3.81;55.81;100312.16;7738420;32;36825;-75
2022/04/11 04:31:50;;;;;;;10.45;6.60;;;;;;;3.57;56.89;100314.53;7739566;32;40186;-74
2022/04/11 04:36:06;;;;;;;8.77;5.90;;;;;;;3.94;55.45;100314.78;7739252;32;40849;-75
2022/04/11 04:40:22;;;;;;;9.63;5.60;;;;;;;3.78;56.21;100326.06;7738438;32;39188;-74
2022/04/11 04:44:40;;;;;;;8.40;5.70;;;;;;;4.01;55.84;100330.12;7739326;32;38300;-75
2022/04/11 04:48:57;;;;;;;11.90;6.80;;;;;;;3.67;56.94;100330.25;7739219;32;40027;-75
2022/04/11 04:53:16;;;;;;;10.25;5.97;;;;;;;3.65;57.26;100332.31;7734182;32;39673;-75
2022/04/11 04:57:32;;;;;;;10.55;5.60;;;;;;;3.82;56.90;100337.25;7712140;32;37841;-75
2022/04/11 05:01:48;;;;;;;8.32;5.85;;;;;;;4.06;55.86;100336.50;7712239;32;35737;-75
2022/04/11 05:06:06;;;;;;;8.43;5.60;;;;;;;3.92;56.80;100340.31;7712290;32;39283;-76
2022/04/11 05:10:22;;;;;;;11.85;6.15;;;;;;;3.98;56.88;100339.44;7711491;32;41508;-76
2022/04/11 05:14:38;;;;;;;9.32;5.65;;;;;;;4.01;56.39;100341.72;7711691;32;37808;-76
2022/04/11 05:18:54;;;;;;;11.60;5.97;;;;;;;4.14;56.27;100341.66;7712177;32;37846;-75
2022/04/11 05:23:11;;;;;;;7.70;5.10;;;;;;;4.17;56.44;100345.78;7712068;32;39444;-75
2022/04/11 05:27:27;;;;;;;10.90;6.22;;;;;;;4.12;56.82;100346.47;7711640;32;39982;-75
2022/04/11 05:31:43;;;;;;;16.67;6.03;;;;;;;4.25;56.42;100342.03;7720369;32;37972;-76
2022/04/11 05:35:59;;;;;;;12.45;6.20;;;;;;;4.33;56.71;100349.88;7720530;32;36842;-75
2022/04/11 05:40:15;;;;;;;9.50;6.32;;;;;;;4.50;56.82;100340.22;7738780;32;40209;-77
2022/04/11 05:44:32;;;;;;;8.93;5.80;;;;;;;4.41;57.32;100327.19;7738608;32;40929;-75
2022/04/11 05:48:48;;;;;;;12.70;6.50;;;;;;;4.56;57.34;100337.69;7738542;32;37746;-77
2022/04/11 05:53:04;;;;;;;13.32;6.25;;;;;;;4.99;56.37;100336.91;7738743;32;35767;-79
2022/04/11 05:57:20;;;;;;;9.48;5.45;;;;;;;4.89;56.00;100335.53;7738534;32;40133;-77
2022/04/11 06:01:37;;;;;;;9.43;5.45;;;;;;;5.14;55.97;100345.50;7738441;32;39954;-77
2022/04/11 06:05:54;;;;;;;7.78;5.18;;;;;;;5.53;54.94;100340.72;7738895;32;38714;-77
2022/04/11 06:10:11;;;;;;;8.27;4.95;;;;;;;5.55;54.21;100335.91;7738273;32;37071;-77
2022/04/11 06:14:27;;;;;;;8.57;5.47;;;;;;;5.77;53.66;100336.28;7737019;32;40055;-77
2022/04/11 06:18:43;;;;;;;9.02;5.80;;;;;;;6.10;52.55;100339.66;7738284;32;39636;-71
2022/04/11 06:22:59;;;;;;;10.70;6.00;;;;;;;5.82;53.71;100341.03;7733004;32;37821;-76
2022/04/11 06:27:16;;;;;;;11.57;5.43;;;;;;;6.07;53.38;100357.22;7711499;32;37289;-74
2022/04/11 06:31:32;;;;;;;10.20;5.32;;;;;;;6.40;54.48;100353.22;7710882;32;39354;-78
2022/04/11 06:35:48;;;;;;;8.15;5.18;;;;;;;6.90;51.37;100346.63;7711060;32;40958;-76
2022/04/11 06:40:05;;;;;;;8.98;5.10;;;;;;;6.75;51.11;100345.16;7711199;32;37849;-75
2022/04/11 06:44:21;;;;;;;7.40;4.90;;;;;;;6.72;50.53;100356.47;7709939;32;37935;-78
2022/04/11 06:48:37;;;;;;;9.90;5.03;;;;;;;7.01;50.11;100343.09;7710977;32;38980;-78
2022/04/11 06:52:53;;;;;;;7.32;4.82;;;;;;;7.44;48.94;100347.31;7710910;32;40915;-74
2022/04/11 06:57:09;;;;;;;8.48;4.68;;;;;;;7.67;48.58;100345.63;7709679;32;37926;-78
2022/04/11 07:01:25;;;;;;;7.72;4.75;;;;;;;7.75;48.22;100352.59;7710950;32;37472;-78
2022/04/11 07:05:42;;;;;;;7.28;4.30;;;;;;;7.77;47.52;100351.28;7710721;32;39161;-77
2022/04/11 07:09:59;;;;;;;9.05;4.90;;;;;;;7.56;47.99;100357.34;7710605;32;39949;-79
2022/04/11 07:14:15;;;;;;;7.47;5.05;;;;;;;7.55;47.74;100358.41;7710370;32;38782;-77
2022/04/11 07:18:33;;;;;;;11.18;4.80;;;;;;;7.93;48.24;100360.56;7710613;32;37223;-77
2022/04/11 07:22:49;;;;;;;7.72;5.12;;;;;;;8.04;48.07;100359.72;7711038;32;39313;-77
2022/04/11 07:27:06;;;;;;;8.18;4.93;;;;;;;8.11;47.19;100364.19;7710388;32;39966;-75
2022/04/11 07:31:22;;;;;;;8.88;5.20;;;;;;;8.46;46.74;100359.44;7699448;32;37941;-78
2022/04/11 07:35:38;;;;;;;8.32;4.72;;;;;;;8.33;47.36;100364.31;7703226;32;38340;-77
2022/04/11 07:39:55;;;;;;;7.12;5.25;;;;;;;7.95;47.31;100368.47;7712354;32;39548;-77
2022/04/11 07:44:11;;;;;;;7.15;4.72;;;;;;;7.58;48.92;100374.22;7712460;32;39641;-77
2022/04/11 07:48:27;;;;;;;9.07;4.72;;;;;;;8.02;48.27;100369.16;7712629;32;37557;-74
2022/04/11 07:52:43;;;;;;;8.65;5.68;;;;;;;8.09;47.83;100367.16;7694898;32;37906;-80
2022/04/11 07:56:59;;;;;;;9.18;5.82;;;;;;;8.49;46.16;100366.31;7739612;32;39378;-77
2022/04/11 08:01:16;;;;;;;10.85;5.82;;;;;;;8.99;44.16;100368.25;7738136;32;39999;-76
2022/04/11 08:05:32;;;;;;;10.43;5.65;;;;;;;9.24;46.04;100358.81;7738113;32;37985;-75
2022/04/11 08:09:52;;;;;;;10.75;5.53;;;;;;;9.53;44.52;100358.72;7739531;32;38341;-75
2022/04/11 08:14:08;;;;;;;8.02;4.62;;;;;;;9.68;44.42;100364.38;7732457;32;222401;-79
2022/04/11 08:18:24;;;;;;;9.32;5.40;;;;;;;9.97;44.67;100366.91;7739423;32;40965;-74
2022/04/11 08:22:40;;;;;;;9.23;5.45;;;;;;;10.07;43.99;100356.16;7737420;32;38123;-74
2022/04/11 08:26:58;;;;;;;6.78;4.60;;;;;;;10.10;43.38;100361.06;7739031;32;37000;-74
2022/04/11 08:31:14;;;;;;;7.93;4.90;;;;;;;10.65;42.31;100361.12;7739150;32;40107;-75
2022/04/11 08:35:30;;;;;;;10.00;5.78;;;;;;;10.55;43.63;100344.69;7718748;32;40805;-74
2022/04/11 08:39:46;;;;;;;10.75;5.15;;;;;;;10.71;42.69;100343.75;7716407;32;38026;-75
2022/04/11 08:44:07;;;;;;;9.30;5.10;;;;;;;10.79;40.90;100332.34;7704133;32;37895;-76
2022/04/11 08:48:23;;;;;;;6.80;4.40;;;;;;;11.18;42.30;100332.09;7712333;32;39080;-75
2022/04/11 08:52:39;;;;;;;8.10;4.87;;;;;;;11.33;41.29;100322.34;7712349;32;39601;-75
2022/04/11 08:56:55;;;;;;;9.23;5.30;;;;;;;10.69;41.50;100329.53;7712144;32;38037;-74
2022/04/11 09:01:11;;;;;;;9.18;4.90;;;;;;;9.81;42.69;100341.38;7712220;32;37915;-73
2022/04/11 09:05:32;;;;;;;8.05;4.40;;;;;;;10.89;40.49;100329.69;7712340;32;39378;-77
2022/04/11 09:09:48;;;;;;;7.18;4.50;;;;;;;11.40;44.02;100322.94;7711889;32;40017;-80
2022/04/11 09:14:08;;;;;;;6.47;4.05;;;;;;;11.42;39.33;100326.25;7711790;32;38034;-73
2022/04/11 09:18:44;;;;;;;9.90;3.70;;;;;;;10.48;40.70;100329.34;7712044;32;37199;-71
2022/04/11 09:23:01;;;;;;;6.50;3.95;;;;;;;11.32;38.74;100323.47;7718391;32;39946;-77
2022/04/11 09:27:24;;;;;;;5.97;4.45;;;;;;;10.94;38.32;100315.28;7723972;32;40816;-75
2022/04/11 09:31:40;;;;;;;5.53;3.93;;;;;;;10.90;38.33;100317.72;7736979;32;38691;-76
2022/04/11 09:35:56;;;;;;;5.93;3.40;;;;;;;11.02;38.98;100319.41;7711638;32;37251;-77
2022/04/11 09:40:20;;;;;;;4.72;3.17;;;;;;;11.85;38.84;100302.41;7707823;32;40212;-76
2022/04/11 09:44:36;;;;;;;5.32;3.28;;;;;;;12.41;37.21;100304.50;7709039;32;39976;-76
2022/04/11 09:49:12;;;;;;;5.82;3.20;;;;;;;12.61;34.97;100300.97;7709090;32;38172;-75
2022/04/11 09:53:32;;;;;;;6.25;3.35;;;;;;;13.05;33.05;100305.03;7711367;32;37042;-74
2022/04/11 09:57:49;;;;;;;4.68;2.58;;;;;;;13.24;34.00;100305.28;7711646;32;40512;-70
2022/04/11 10:02:06;;;;;;;4.50;2.80;;;;;;;12.18;32.48;100305.81;7711492;32;40939;-75
2022/04/11 10:06:22;;;;;;;4.12;2.40;;;;;;;13.14;34.02;100303.38;7711472;32;38752;-75
2022/04/11 10:10:39;;;;;;;3.10;2.45;;;;;;;13.85;32.21;100293.34;7711371;32;37866;-75
2022/04/11 10:14:55;;;;;;;7.45;2.25;;;;;;;14.02;31.15;100293.81;7711312;32;39886;-75
2022/04/11 10:19:12;;;;;;;5.03;3.20;;;;;;;14.48;28.13;100294.63;7711137;32;40019;-76
2022/04/11 10:23:39;;;;;;;8.80;2.92;;;;;;;13.36;30.62;100289.41;7711229;32;38763;-77
2022/04/11 10:28:22;;;;;;;4.87;2.85;;;;;;;14.10;32.76;100295.13;7710197;32;36820;-76
2022/04/11 10:32:52;;;;;;;4.15;2.80;;;;;;;14.87;27.24;100297.34;7727643;32;40167;-78
2022/04/11 10:37:10;;;;;;;4.85;3.17;;;;;;;14.03;30.12;100302.84;7736791;32;39921;-76
2022/04/11 10:41:54;;;;;;;4.22;2.60;;;;;;;14.57;30.71;100298.37;7737905;32;38041;-79
2022/04/11 10:46:10;;;;;;;;;;;;;;;15.09;31.15;100301.53;7738218;32;37098;-79
2022/04/11 10:50:45;;;;;;;4.65;3.15;;;;;;;15.33;28.31;100288.66;7737986;32;40459;-79
2022/04/11 10:55:06;;;;;;;3.55;2.55;;;;;;;15.26;29.60;100277.19;7728610;32;39719;-79
2022/04/11 10:59:49;;;;;;;3.60;2.60;;;;;;;15.72;26.71;100279.41;7710916;32;36935;-79
2022/04/11 11:04:21;;;;;;;4.57;2.55;;;;;;;16.49;26.04;100272.84;7710595;32;37111;-79
2022/04/11 11:08:37;;;;;;;4.65;2.85;;;;;;;17.12;23.80;100270.69;7710461;32;39337;-80
2022/04/11 11:13:13;;;;;;;5.97;2.90;;;;;;;16.73;25.44;100274.66;7729186;32;40515;-76
2022/04/11 11:17:58;;;;;;;4.95;2.85;;;;;;;16.44;24.69;100283.12;7717725;32;38180;-78
2022/04/11 11:22:14;;;;;;;3.90;2.60;;;;;;;15.56;26.49;100275.22;7710167;32;37838;-78
2022/04/11 11:26:40;;;;;;;6.87;2.50;;;;;;;16.06;26.82;100272.94;7720068;32;39327;-78
2022/04/11 11:30:56;;;;;;;2.62;2.05;;;;;;;16.42;23.66;100266.91;7699073;32;39973;-81
2022/04/11 11:35:12;;;;;;;3.05;1.83;;;;;;;16.85;23.51;100258.50;7710061;32;38030;-79
2022/04/11 11:39:30;;;;;;;3.20;2.60;;;;;;;16.41;26.16;100256.19;7710006;32;37887;-79
2022/04/11 11:43:48;;;;;;;4.75;2.70;;;;;;;17.14;22.99;100251.09;7709869;32;39292;-78
2022/04/11 11:48:42;;;;;;;4.60;2.60;;;;;;;17.37;24.38;100252.06;7709865;32;40765;-81
2022/04/11 11:52:59;;;;;;;3.28;2.10;;;;;;;16.23;24.02;100261.41;7679511;32;37572;-79
2022/04/11 11:57:23;;;;;;;3.47;2.15;;;;;;;16.11;25.18;100248.09;7696281;32;37529;-79
2022/04/11 12:01:39;;;;;;;3.72;2.12;;;;;;;16.62;24.60;100237.41;7709681;32;39381;-79
2022/04/11 12:05:59;;;;;;;5.87;2.33;;;;;;;16.98;23.05;100231.28;7709587;32;40636;-78
2022/04/11 12:10:16;;;;;;;5.68;2.35;;;;;;;17.31;22.70;100229.28;7709201;32;37882;-81
2022/04/11 12:15:11;;;;;;;4.00;2.30;;;;;;;16.51;22.80;100223.81;7708924;32;37203;-79
2022/04/11 12:19:37;;;;;;;2.65;1.70;;;;;;;16.81;23.73;100234.59;7674760;32;40075;-81
2022/04/11 12:23:53;;;;;;;1.85;1.65;;;;;;;16.84;24.23;100237.59;7696497;32;39979;-77
2022/04/11 12:28:34;;;;;;;2.17;1.70;;;;;;;17.31;22.22;100240.28;7712649;32;38037;-76
2022/04/11 12:32:49;;;;;;;3.67;1.95;;;;;;;17.38;22.44;100228.88;7712096;32;37840;-79
2022/04/11 12:37:14;;;;;;;4.30;2.30;;;;;;;17.32;21.36;100213.56;7712298;32;38908;-78
2022/04/11 12:41:36;;;;;;;3.17;2.17;;;;;;;16.48;21.93;100213.41;7708768;32;41055;-81
2022/04/11 12:46:07;;;;;;;2.50;1.87;;;;;;;15.44;23.46;100211.62;7689787;32;38859;-82
2022/04/11 12:50:24;;;;;;;3.55;2.22;;;;;;;17.49;23.35;100197.22;7704350;32;37073;-79
2022/04/11 12:54:41;;;;;;;5.90;2.08;;;;;;;17.97;20.69;100199.50;7712051;32;40121;-79
2022/04/11 12:58:57;;;;;;;1.77;1.58;;;;;;;18.74;21.41;100203.09;7731102;32;40062;-80
2022/04/11 13:03:13;;;;;;;3.10;1.80;;;;;;;19.24;19.95;100191.00;7738521;32;37970;-84
2022/04/11 13:07:29;;;;;;;4.12;1.90;;;;;;;18.79;17.79;100198.59;7726987;32;36830;-76
2022/04/11 13:11:47;;;;;;;3.15;1.80;;;;;;;17.99;18.77;100188.97;7737955;32;39303;-79
2022/04/11 13:20:56;;;;;;;1.70;1.40;;;;;;;18.00;20.27;100181.50;7738496;32;37933;-80
2022/04/11 13:25:12;;;;;;;3.67;1.50;;;;;;;18.50;18.98;100180.53;7738462;32;37830;-79
2022/04/11 13:29:29;;;;;;;2.40;1.48;;;;;;;18.67;18.62;100175.13;7738808;32;39567;-80
2022/04/11 13:33:44;;;;;;;1.50;1.30;;;;;;;19.21;18.33;100166.75;7736170;32;40089;-79
2022/04/11 13:38:00;;;;;;;3.65;1.80;;;;;;;18.79;17.78;100169.00;7738120;32;39297;-80
2022/04/11 13:42:17;;;;;;;3.33;1.70;;;;;;;17.79;19.99;100164.56;7738278;32;37312;-78
2022/04/11 13:46:33;;;;;;;2.65;1.80;;;;;;;17.85;19.37;100166.09;7738395;32;39180;-79
2022/04/11 13:50:49;;;;;;;2.45;1.58;;;;;;;18.05;19.08;100161.25;7738020;32;39652;-81
2022/04/11 13:55:06;;;;;;;3.65;1.65;;;;;;;17.54;19.72;100155.78;7738038;32;37604;-84
2022/04/11 13:59:25;;;;;;;1.62;1.50;;;;;;;18.33;20.19;100165.53;7738407;32;37045;-78
2022/04/11 14:03:42;;;;;;;1.85;1.50;;;;;;;17.75;18.99;100167.16;7737608;32;40142;-80
2022/04/11 14:07:58;;;;;;;2.10;1.60;;;;;;;17.61;20.56;100156.16;7715123;32;39938;-83
2022/04/11 14:12:14;;;;;;;3.58;1.48;;;;;;;17.78;19.94;100157.41;7709719;32;37880;-81
2022/04/11 14:16:30;;;;;;;2.55;1.62;;;;;;;17.73;21.24;100157.53;7710829;32;36992;-81
2022/04/11 14:20:46;;;;;;;2.78;1.48;;;;;;;16.92;19.79;100153.47;7732585;32;39465;-81
2022/04/11 14:25:04;;;;;;;1.80;1.50;;;;;;;17.00;20.46;100140.91;7737183;32;40046;-80
2022/04/11 14:29:42;;;;;;;6.82;1.60;;;;;;;17.92;20.75;100144.44;7737494;32;38313;-81
2022/04/11 14:33:58;;;;;;;2.83;1.55;;;;;;;17.39;19.04;100142.31;7737338;32;37316;-80
2022/04/11 14:38:14;;;;;;;3.00;1.20;;;;;;;17.03;20.65;100137.56;7735569;32;39277;-80
2022/04/11 14:42:30;;;;;;;1.40;1.30;;;;;;;17.55;18.74;100142.78;7736956;32;40818;-79
2022/04/11 14:46:46;;;;;;;6.45;1.70;;;;;;;17.37;19.46;100141.81;7735687;32;38084;-80
2022/04/11 14:51:03;;;;;;;2.50;1.60;;;;;;;17.26;19.62;100142.03;7736687;32;38445;-80
2022/04/11 14:55:20;;;;;;;1.95;1.42;;;;;;;18.00;18.56;100124.38;7736921;32;39428;-81
2022/04/11 14:59:36;;;;;;;2.00;1.50;;;;;;;18.29;17.69;100133.34;7737157;32;40834;-80
2022/04/11 15:03:52;;;;;;;2.12;1.62;;;;;;;18.64;19.16;100126.03;7736855;32;38808;-82
2022/04/11 15:08:08;;;;;;;2.97;1.65;;;;;;;17.62;18.86;100130.19;7736949;32;37833;-80
2022/04/11 15:12:25;;;;;;;3.30;1.90;;;;;;;17.87;18.48;100124.44;7716087;32;40102;-80
2022/04/11 15:16:41;;;;;;;2.55;1.50;;;;;;;16.97;19.48;100125.00;7718529;32;40026;-80
2022/04/11 15:20:57;;;;;;;2.70;1.83;;;;;;;17.30;19.80;100130.38;7736361;32;37973;-80
2022/04/11 15:25:13;;;;;;;2.60;1.70;;;;;;;16.99;19.54;100122.75;7714974;32;37140;-80
2022/04/11 15:29:30;;;;;;;4.60;2.12;;;;;;;16.68;19.17;100109.59;7709457;32;39367;-79
2022/04/11 15:33:46;;;;;;;2.40;1.83;;;;;;;16.30;20.40;100118.00;7709776;32;39828;-81
2022/04/11 15:38:02;;;;;;;3.37;1.80;;;;;;;15.71;20.86;100118.34;7709577;32;38697;-81
2022/04/11 15:42:19;;;;;;;2.62;1.87;;;;;;;16.31;20.82;100114.91;7709419;32;37859;-79
2022/04/11 15:46:35;;;;;;;2.22;1.62;;;;;;;16.23;20.36;100106.53;7709018;32;39984;-81
2022/04/11 15:50:51;;;;;;;9.63;2.03;;;;;;;14.99;21.57;100119.31;7709348;32;39574;-80
2022/04/11 15:55:23;;;;;;;3.95;1.92;;;;;;;14.91;20.72;100117.22;7709798;32;38823;-80
2022/04/11 15:59:41;;;;;;;2.47;2.10;;;;;;;14.46;23.39;100122.06;7712888;32;37293;-79
2022/04/11 16:03:57;;;;;;;3.53;1.70;;;;;;;14.47;22.27;100118.25;7712533;32;39049;-78
2022/04/11 16:08:13;;;;;;;2.53;1.87;;;;;;;14.68;22.86;100123.53;7711263;32;40497;-79
2022/04/11 16:12:29;;;;;;;4.43;1.65;;;;;;;14.41;22.53;100124.87;7712377;32;37650;-79
2022/04/11 16:16:45;;;;;;;3.67;1.77;;;;;;;13.49;23.42;100121.75;7712238;32;36743;-77
2022/04/11 16:21:01;;;;;;;3.53;1.92;;;;;;;13.80;24.07;100121.53;7729671;32;39736;-80
2022/04/11 16:25:17;;;;;;;2.78;1.65;;;;;;;14.32;23.12;100121.94;7739157;32;40875;-80
2022/04/11 16:29:33;;;;;;;6.55;1.90;;;;;;;14.10;23.21;100119.66;7738795;32;38106;-79
2022/04/11 16:33:50;;;;;;;4.15;1.80;;;;;;;14.14;23.17;100114.41;7739098;32;37294;-79
2022/04/11 16:38:06;;;;;;;2.90;2.03;;;;;;;14.15;23.41;100124.28;7738735;32;39047;-79
2022/04/11 16:42:22;;;;;;;3.08;1.90;;;;;;;13.63;22.60;100126.59;7734519;32;40882;-78
2022/04/11 16:46:38;;;;;;;1.58;1.48;;;;;;;14.17;23.44;100136.59;7720443;32;38657;-78
2022/04/11 16:50:54;;;;;;;4.15;1.60;;;;;;;14.09;23.36;100126.28;7711727;32;37018;-77
2022/04/11 16:55:10;;;;;;;2.12;1.60;;;;;;;14.21;23.65;100123.13;7712028;32;39452;-78
2022/04/11 16:59:27;;;;;;;2.95;1.70;;;;;;;13.88;24.71;100131.91;7711885;32;40981;-80
2022/04/11 17:03:43;;;;;;;3.53;2.08;;;;;;;14.17;24.52;100130.31;7707781;32;37445;-77
2022/04/11 17:07:59;;;;;;;3.12;1.80;;;;;;;14.25;23.62;100133.25;7685803;32;36771;-77
2022/04/11 17:12:15;;;;;;;4.82;2.20;;;;;;;14.13;24.18;100135.53;7685179;32;39918;-76
2022/04/11 17:21:08;;;;;;;4.37;2.42;;;;;;;14.71;23.72;100140.25;7699390;32;38174;-77
2022/04/11 17:25:27;;;;;;;5.30;2.75;;;;;;;14.83;23.70;100154.38;7685038;32;36382;-76
2022/04/11 17:29:44;;;;;;;7.65;3.30;;;;;;;14.31;23.97;100157.88;7683354;32;39576;-78
2022/04/11 17:34:01;;;;;;;8.00;3.85;;;;;;;14.17;23.72;100153.03;7685406;32;39923;-77
2022/04/11 17:38:19;;;;;;;10.95;4.65;;;;;;;13.75;24.77;100162.69;7693752;32;38518;-81
2022/04/11 17:42:35;;;;;;;11.07;4.70;;;;;;;13.55;25.54;100169.09;7711068;32;37174;-82
2022/04/11 17:46:51;;;;;;;10.27;3.85;;;;;;;13.47;26.75;100169.69;7711581;32;40254;-81
2022/04/11 17:51:07;;;;;;;10.10;3.50;;;;;;;13.19;27.05;100173.88;7710891;32;39585;-79
2022/04/11 17:55:24;;;;;;;7.15;2.95;;;;;;;12.81;27.47;100173.47;7710981;32;37935;-80
2022/04/11 17:59:40;;;;;;;6.40;2.97;;;;;;;12.66;28.76;100175.13;7710725;32;36842;-77
2022/04/11 18:03:56;;;;;;;7.20;2.70;;;;;;;12.56;26.45;100175.97;7711699;32;40026;-76
2022/04/11 18:08:12;;;;;;;4.75;3.00;;;;;;;12.59;27.45;100178.16;7711587;32;39972;-76
2022/04/11 18:12:28;;;;;;;5.93;3.10;;;;;;;12.36;28.23;100189.66;7711355;32;38000;-76
2022/04/11 18:16:44;;;;;;;8.52;3.30;;;;;;;12.05;28.72;100192.38;7710495;32;37235;-76
2022/04/11 18:21:01;;;;;;;9.02;3.83;;;;;;;11.79;29.68;100194.22;7710654;32;40066;-76
2022/04/11 18:25:17;;;;;;;7.80;3.50;;;;;;;11.75;30.63;100204.88;7708363;32;39654;-77
2022/04/11 18:34:12;;;;;;;5.82;2.92;;;;;;;11.64;29.93;100209.50;7736631;32;37855;-76
2022/04/11 18:38:28;;;;;;;7.53;3.12;;;;;;;11.40;31.39;100220.06;7737761;32;40127;-76
2022/04/11 18:42:46;;;;;;;5.32;2.92;;;;;;;11.11;31.73;100230.56;7737993;32;40069;-74
2022/04/11 18:47:02;;;;;;;6.80;3.12;;;;;;;11.17;31.28;100231.41;7737905;32;38613;-75
2022/04/11 18:51:18;;;;;;;6.68;2.90;;;;;;;11.41;29.14;100234.50;7736698;32;37153;-77
2022/04/11 18:55:34;;;;;;;8.07;3.20;;;;;;;10.90;32.20;100238.62;7737700;32;39416;-75
2022/04/11 18:59:50;;;;;;;5.18;2.85;;;;;;;10.86;31.10;100242.94;7737596;32;40179;-76
2022/04/11 19:04:07;;;;;;;5.72;2.90;;;;;;;10.77;31.67;100249.16;7733290;32;38751;-76
2022/04/11 19:08:24;;;;;;;5.00;2.90;;;;;;;10.57;31.54;100255.25;7710713;32;37540;-76
2022/04/11 19:12:40;;;;;;;6.47;3.10;;;;;;;10.70;31.03;100252.91;7710338;32;40060;-77
2022/04/11 19:16:57;;;;;;;5.07;3.03;;;;;;;10.41;32.11;100246.97;7710134;32;39927;-76
2022/04/11 19:21:14;;;;;;;4.75;2.62;;;;;;;10.29;32.24;100249.81;7708827;32;37965;-75
2022/04/11 19:25:32;;;;;;;4.97;2.97;;;;;;;10.34;32.16;100247.16;7725201;32;36276;-75
2022/04/11 19:29:49;;;;;;;5.45;2.55;;;;;;;9.98;33.60;100245.16;7734673;32;38775;-74
2022/04/11 19:34:07;;;;;;;3.58;2.45;;;;;;;9.92;33.13;100244.31;7736589;32;40630;-74
2022/04/11 19:38:23;;;;;;;3.33;2.30;;;;;;;10.00;33.68;100243.81;7736550;32;37676;-75
2022/04/11 19:42:39;;;;;;;7.18;3.40;;;;;;;9.69;34.41;100248.97;7736551;32;36815;-75
2022/04/11 19:46:55;;;;;;;4.62;2.70;;;;;;;9.76;33.75;100241.41;7736531;32;39909;-75
2022/04/11 19:51:11;;;;;;;6.45;2.55;;;;;;;9.61;34.27;100243.09;7733691;32;40145;-75
2022/04/11 19:55:28;;;;;;;5.57;3.30;;;;;;;9.52;35.58;100245.47;7736229;32;38012;-74
2022/04/11 19:59:44;;;;;;;5.93;3.15;;;;;;;9.28;37.39;100240.28;7736448;32;37722;-75
2022/04/11 20:04:02;;;;;;;3.95;2.50;;;;;;;9.56;36.46;100241.16;7735965;32;39313;-76
2022/04/11 20:08:19;;;;;;;3.75;2.30;;;;;;;9.57;35.91;100242.78;7725396;32;39423;-75
2022/04/11 20:12:37;;;;;;;7.15;3.53;;;;;;;9.49;35.36;100243.25;7693042;32;37975;-75
2022/04/11 20:16:54;;;;;;;4.18;2.90;;;;;;;9.13;35.98;100256.41;7693724;32;36686;-75
2022/04/11 20:21:10;;;;;;;7.43;3.30;;;;;;;9.06;36.55;100255.75;7694286;32;39274;-75